Time;durP1;ratioP1;P1;durP2;ratioP2;P2;SDS_P1;SDS_P2;PMS_P1;PMS_P2;Temp;Humidity;BMP_temperature;BMP_pressure;BME280_temperature;BME280_humidity;BME280_pressure;Samples;Min_cycle;Max_cycle;Signal;HPM_P1;HPM_P2
2023/08/26 00:01:51;;;;;;;12.10;7.77;;;20.30;99.90;;;;;;5049240;28;20450;-66
2023/08/26 00:04:20;;;;;;;13.00;7.47;;;20.20;99.90;;;;;;5044744;28;20833;-67
2023/08/26 00:06:48;;;;;;;14.83;7.77;;;20.20;99.90;;;;;;5029419;28;20520;-68
2023/08/26 00:09:16;;;;;;;13.73;7.87;;;20.20;99.90;;;;;;5029866;28;20596;-66
2023/08/26 00:11:45;;;;;;;14.33;7.30;;;20.10;99.90;;;;;;5030041;28;21006;-66
2023/08/26 00:14:13;;;;;;;12.90;7.30;;;20.10;99.90;;;;;;5042160;28;20434;-67
2023/08/26 00:16:41;;;;;;;16.70;7.30;;;20.00;99.90;;;;;;5049395;28;20467;-65
2023/08/26 00:19:09;;;;;;;13.83;7.93;;;20.00;99.90;;;;;;5044746;28;20547;-68
2023/08/26 00:21:37;;;;;;;11.90;6.87;;;19.90;99.90;;;;;;5047582;28;20527;-67
2023/08/26 00:24:06;;;;;;;13.43;7.90;;;19.90;99.90;;;;;;5049797;28;20560;-67
2023/08/26 00:26:34;;;;;;;12.23;7.50;;;19.90;99.90;;;;;;5049369;28;20601;-65
2023/08/26 00:29:03;;;;;;;13.30;8.03;;;19.90;99.90;;;;;;5041975;28;20828;-66
2023/08/26 00:31:31;;;;;;;17.60;9.17;;;19.90;99.90;;;;;;5050707;28;20463;-67
2023/08/26 00:34:02;;;;;;;13.30;8.40;;;19.80;99.90;;;;;;5045141;28;20458;-67
2023/08/26 00:36:31;;;;;;;13.90;7.67;;;19.90;99.90;;;;;;5045238;28;20464;-67
2023/08/26 00:38:59;;;;;;;13.70;8.63;;;19.90;99.90;;;;;;5050287;28;20440;-68
2023/08/26 00:41:27;;;;;;;16.53;8.80;;;19.90;99.90;;;;;;5050993;28;20444;-68
2023/08/26 00:43:55;;;;;;;13.57;7.90;;;19.90;99.90;;;;;;5046346;28;20444;-68
2023/08/26 00:46:25;;;;;;;14.43;7.93;;;19.90;99.90;;;;;;5050417;28;20521;-67
2023/08/26 00:48:53;;;;;;;12.80;7.13;;;19.90;99.90;;;;;;5049783;28;20444;-66
2023/08/26 00:51:21;;;;;;;12.60;7.60;;;19.90;99.90;;;;;;5050750;28;20444;-67
2023/08/26 00:53:50;;;;;;;19.87;8.47;;;19.90;99.90;;;;;;5047581;28;21002;-66
2023/08/26 00:56:18;;;;;;;13.77;8.20;;;19.80;99.90;;;;;;5051226;28;21024;-66
2023/08/26 00:58:46;;;;;;;12.40;7.33;;;19.80;99.90;;;;;;5051555;28;20439;-67
2023/08/26 01:01:14;;;;;;;13.60;7.23;;;19.80;99.90;;;;;;5050753;28;20811;-67
2023/08/26 01:03:43;;;;;;;47.40;11.37;;;19.90;99.90;;;;;;5051521;28;21043;-65
2023/08/26 01:06:11;;;;;;;11.67;6.70;;;19.90;99.90;;;;;;5051558;28;20460;-66
2023/08/26 01:08:39;;;;;;;12.20;6.73;;;19.90;99.90;;;;;;5051574;28;20482;-66
2023/08/26 01:11:12;;;;;;;15.10;6.93;;;20.00;99.90;;;;;;5033126;28;20461;-66
2023/08/26 01:13:49;;;;;;;14.57;7.30;;;20.00;99.90;;;;;;5031231;28;20449;-66
2023/08/26 01:16:18;;;;;;;12.53;7.20;;;19.90;99.90;;;;;;5031575;28;20494;-65
2023/08/26 01:18:48;;;;;;;14.20;7.80;;;19.90;99.90;;;;;;5031499;28;20449;-66
2023/08/26 01:21:19;;;;;;;12.60;7.60;;;19.90;99.90;;;;;;5031571;28;20975;-67
2023/08/26 01:23:48;;;;;;;13.87;8.00;;;19.80;99.90;;;;;;5031140;28;20821;-66
2023/08/26 01:26:16;;;;;;;14.67;7.70;;;19.70;99.90;;;;;;5032262;28;20465;-67
2023/08/26 01:28:47;;;;;;;15.23;7.93;;;19.60;99.90;;;;;;5031441;28;20495;-66
2023/08/26 01:31:21;;;;;;;13.70;8.13;;;19.70;99.90;;;;;;5031341;28;20441;-66
2023/08/26 01:33:55;;;;;;;13.70;7.53;;;19.70;99.90;;;;;;5031071;28;20436;-67
2023/08/26 01:36:26;;;;;;;14.07;7.33;;;19.70;99.90;;;;;;5030902;28;20457;-66
2023/08/26 01:38:57;;;;;;;14.73;7.17;;;19.70;99.90;;;;;;5031140;28;20440;-66
2023/08/26 01:41:26;;;;;;;11.90;5.90;;;19.60;99.90;;;;;;5031238;28;20448;-67
2023/08/26 01:43:55;;;;;;;16.30;6.93;;;19.60;99.90;;;;;;5049601;28;20453;-65
2023/08/26 01:46:35;;;;;;;18.27;6.67;;;19.60;99.90;;;;;;5050340;28;20545;-66
2023/08/26 01:49:03;;;;;;;14.40;7.17;;;19.50;99.90;;;;;;5050569;28;20475;-67
2023/08/26 01:51:31;;;;;;;13.07;6.33;;;19.40;99.90;;;;;;5035283;28;20503;-66
2023/08/26 01:54:01;;;;;;;14.23;7.07;;;19.50;99.90;;;;;;5030317;28;20993;-66
2023/08/26 01:56:28;;;;;;;13.67;6.57;;;19.40;99.90;;;;;;5030901;28;20464;-67
2023/08/26 01:58:56;;;;;;;13.10;7.73;;;19.40;99.90;;;;;;5030676;28;20437;-66
2023/08/26 02:01:24;;;;;;;12.53;6.30;;;19.40;99.90;;;;;;5030304;28;20456;-64
2023/08/26 02:03:52;;;;;;;13.27;6.17;;;19.40;99.90;;;;;;5030649;28;20469;-66
2023/08/26 02:06:21;;;;;;;12.50;5.70;;;19.40;99.90;;;;;;5050730;28;20834;-66
2023/08/26 02:08:48;;;;;;;12.53;5.67;;;19.40;99.90;;;;;;5050343;28;20537;-66
2023/08/26 02:11:18;;;;;;;16.60;5.53;;;19.40;99.90;;;;;;5050612;28;20866;-66
2023/08/26 02:13:46;;;;;;;11.73;6.13;;;19.40;99.90;;;;;;5050238;28;20444;-66
2023/08/26 02:16:14;;;;;;;12.63;5.40;;;19.40;99.90;;;;;;5049995;28;20462;-67
2023/08/26 02:18:42;;;;;;;11.77;5.67;;;19.30;99.90;;;;;;5050250;28;20439;-67
2023/08/26 02:21:11;;;;;;;12.70;5.50;;;19.30;99.90;;;;;;5039526;28;20448;-66
2023/08/26 02:23:39;;;;;;;14.27;5.67;;;19.30;99.90;;;;;;5048766;28;20440;-65
2023/08/26 02:26:07;;;;;;;10.90;5.47;;;19.30;99.90;;;;;;5050047;28;20488;-66
2023/08/26 02:28:36;;;;;;;11.30;5.40;;;19.30;99.90;;;;;;5050169;28;20563;-66
2023/08/26 02:31:04;;;;;;;13.10;5.60;;;19.40;99.90;;;;;;5050361;28;20848;-67
2023/08/26 02:33:32;;;;;;;14.10;5.90;;;19.30;99.90;;;;;;5049752;28;20444;-67
2023/08/26 02:36:01;;;;;;;14.23;6.57;;;19.30;99.90;;;;;;5050145;28;20517;-63
2023/08/26 02:38:31;;;;;;;11.13;5.97;;;19.20;99.90;;;;;;5031501;28;20445;-66
2023/08/26 02:40:59;;;;;;;39.03;8.90;;;19.30;99.90;;;;;;5030247;28;20441;-66
2023/08/26 02:43:27;;;;;;;67.37;13.03;;;19.20;99.90;;;;;;5029448;28;20826;-66
2023/08/26 02:45:58;;;;;;;12.03;5.53;;;19.30;99.90;;;;;;5030225;28;20484;-63
2023/08/26 02:48:27;;;;;;;17.33;5.93;;;19.30;99.90;;;;;;5030066;28;20843;-66
2023/08/26 02:50:59;;;;;;;12.27;5.27;;;19.30;99.90;;;;;;5042256;28;20456;-66
2023/08/26 02:53:28;;;;;;;10.50;5.57;;;19.20;99.90;;;;;;5049458;28;20950;-67
2023/08/26 02:55:56;;;;;;;11.30;5.60;;;19.20;99.90;;;;;;5049331;28;20498;-67
2023/08/26 02:58:24;;;;;;;27.73;7.80;;;19.10;99.90;;;;;;5049430;28;20942;-66
2023/08/26 03:00:55;;;;;;;9.90;5.13;;;19.10;99.90;;;;;;5049825;28;20443;-66
2023/08/26 03:03:24;;;;;;;10.73;4.60;;;19.10;99.90;;;;;;5048897;28;20977;-67
2023/08/26 03:05:56;;;;;;;13.40;5.30;;;19.10;99.90;;;;;;5029847;28;20461;-66
2023/08/26 03:08:24;;;;;;;12.50;5.30;;;19.10;99.90;;;;;;5029276;28;20483;-66
2023/08/26 03:10:57;;;;;;;11.27;5.10;;;19.10;99.90;;;;;;5030114;28;20440;-66
2023/08/26 03:13:24;;;;;;;10.70;5.07;;;19.10;99.90;;;;;;5029384;28;20543;-67
2023/08/26 03:15:52;;;;;;;10.40;5.00;;;19.10;99.90;;;;;;5029577;28;20464;-66
2023/08/26 03:18:20;;;;;;;10.67;5.80;;;19.00;99.90;;;;;;5029461;28;20448;-66
2023/08/26 03:20:50;;;;;;;15.10;6.00;;;19.00;99.90;;;;;;5030830;28;20456;-62
2023/08/26 03:23:18;;;;;;;11.70;5.40;;;19.20;99.90;;;;;;5029179;28;20480;-66
2023/08/26 03:25:46;;;;;;;12.03;5.53;;;19.20;99.90;;;;;;5029582;28;20826;-65
2023/08/26 03:28:14;;;;;;;12.17;5.30;;;19.20;99.90;;;;;;5029641;28;20564;-66
2023/08/26 03:30:42;;;;;;;10.83;4.70;;;19.20;99.90;;;;;;5029524;28;20441;-66
2023/08/26 03:33:09;;;;;;;11.20;4.90;;;19.20;99.90;;;;;;5029159;28;20436;-67
2023/08/26 03:35:39;;;;;;;11.63;5.13;;;19.10;99.90;;;;;;5029120;28;20533;-67
2023/08/26 03:38:09;;;;;;;10.37;4.60;;;19.00;99.90;;;;;;5030787;28;20457;-65
2023/08/26 03:40:40;;;;;;;11.20;5.50;;;19.00;99.90;;;;;;5029518;28;20449;-65
2023/08/26 03:43:08;;;;;;;9.97;4.60;;;18.90;99.90;;;;;;5029115;28;20504;-67
2023/08/26 03:45:36;;;;;;;127.90;18.37;;;18.80;99.90;;;;;;5029328;28;20931;-67
2023/08/26 03:48:05;;;;;;;52.63;9.40;;;18.80;99.90;;;;;;5028950;28;20819;-67
2023/08/26 03:50:33;;;;;;;12.90;5.90;;;18.80;99.90;;;;;;5036729;28;20446;-66
2023/08/26 03:53:02;;;;;;;10.13;5.80;;;18.80;99.90;;;;;;5048790;28;20448;-65
2023/08/26 03:55:36;;;;;;;13.30;5.43;;;18.60;99.90;;;;;;5049142;28;20930;-66
2023/08/26 03:58:04;;;;;;;14.60;5.73;;;18.70;99.90;;;;;;5048999;28;20830;-64
2023/08/26 04:00:32;;;;;;;117.63;16.43;;;18.60;99.90;;;;;;5049060;28;20445;-67
2023/08/26 04:03:00;;;;;;;56.13;10.37;;;18.60;99.90;;;;;;5049026;28;20527;-65
2023/08/26 04:05:28;;;;;;;10.77;6.30;;;18.50;99.90;;;;;;5034119;28;20449;-67
2023/08/26 04:07:56;;;;;;;11.60;5.17;;;18.40;99.90;;;;;;5029317;28;20518;-67
2023/08/26 04:10:27;;;;;;;11.60;6.30;;;18.50;99.90;;;;;;5029686;28;20486;-66
2023/08/26 04:13:17;;;;;;;14.43;6.30;;;18.60;99.90;;;;;;5032511;28;20452;-66
2023/08/26 04:15:45;;;;;;;10.83;5.87;;;18.50;99.90;;;;;;5032630;28;20826;-67
2023/08/26 04:18:14;;;;;;;12.27;6.67;;;18.50;99.90;;;;;;5032839;28;20491;-66
2023/08/26 04:20:45;;;;;;;11.23;6.93;;;18.60;99.90;;;;;;5033779;28;20447;-65
2023/08/26 04:23:13;;;;;;;13.83;6.70;;;18.60;99.90;;;;;;5032266;28;20443;-67
2023/08/26 04:25:43;;;;;;;12.70;6.50;;;18.60;99.90;;;;;;5032427;28;20448;-67
2023/08/26 04:28:14;;;;;;;17.30;6.37;;;18.70;99.90;;;;;;5032392;28;20479;-67
2023/08/26 04:30:42;;;;;;;12.63;6.57;;;18.80;99.90;;;;;;5032771;28;20523;-65
2023/08/26 04:33:10;;;;;;;22.83;7.10;;;18.90;99.90;;;;;;5035158;28;20485;-66
2023/08/26 04:35:38;;;;;;;11.30;6.33;;;18.90;99.90;;;;;;5052187;28;20436;-66
2023/08/26 04:38:06;;;;;;;14.67;6.30;;;18.90;99.90;;;;;;5051931;28;20941;-66
2023/08/26 04:40:34;;;;;;;14.90;6.90;;;18.90;99.90;;;;;;5052491;28;20432;-67
2023/08/26 04:43:03;;;;;;;23.00;8.00;;;18.90;99.90;;;;;;5051793;28;20444;-66
2023/08/26 04:45:33;;;;;;;15.60;7.77;;;18.90;99.90;;;;;;5052022;28;20440;-66
2023/08/26 04:48:01;;;;;;;13.70;7.17;;;18.90;99.90;;;;;;5041011;28;20449;-66
2023/08/26 04:50:29;;;;;;;16.10;7.20;;;19.00;99.90;;;;;;5031928;28;21017;-65
2023/08/26 04:52:58;;;;;;;11.23;6.40;;;19.10;99.90;;;;;;5032032;28;20875;-67
2023/08/26 04:55:26;;;;;;;50.60;11.37;;;19.10;99.90;;;;;;5031999;28;20445;-67
2023/08/26 04:57:55;;;;;;;12.77;6.60;;;19.00;99.90;;;;;;5032010;28;20469;-67
2023/08/26 05:00:24;;;;;;;14.17;7.20;;;19.00;99.90;;;;;;5032068;28;20453;-66
2023/08/26 05:02:53;;;;;;;19.17;7.40;;;19.10;99.90;;;;;;5033539;28;20940;-66
2023/08/26 05:05:21;;;;;;;11.97;6.07;;;19.10;99.90;;;;;;5051494;28;20450;-66
2023/08/26 05:07:49;;;;;;;10.73;6.27;;;19.20;99.90;;;;;;5051275;28;20479;-66
2023/08/26 05:10:17;;;;;;;11.60;6.07;;;19.20;99.90;;;;;;5051607;28;20479;-66
2023/08/26 05:12:45;;;;;;;14.07;7.27;;;19.10;99.90;;;;;;5051308;28;20509;-66
2023/08/26 05:15:13;;;;;;;13.30;7.00;;;19.10;99.90;;;;;;5051619;28;20955;-65
2023/08/26 05:17:41;;;;;;;16.70;6.20;;;19.10;99.90;;;;;;5051069;28;21010;-66
2023/08/26 05:20:11;;;;;;;12.23;6.77;;;19.10;99.90;;;;;;5040878;28;20507;-66
2023/08/26 05:22:42;;;;;;;18.27;8.37;;;18.90;99.90;;;;;;5031121;28;20445;-66
2023/08/26 05:25:09;;;;;;;13.17;6.40;;;19.00;99.90;;;;;;5031622;28;20477;-66
2023/08/26 05:27:37;;;;;;;14.20;7.17;;;19.00;99.90;;;;;;5031455;28;20465;-66
2023/08/26 05:30:06;;;;;;;11.70;6.50;;;19.10;99.90;;;;;;5031409;28;20858;-66
2023/08/26 05:32:35;;;;;;;12.10;6.00;;;19.10;99.90;;;;;;5031195;28;20567;-67
2023/08/26 05:35:03;;;;;;;14.50;5.63;;;19.10;99.90;;;;;;5030933;28;20449;-67
2023/08/26 05:37:32;;;;;;;11.57;6.43;;;19.10;99.90;;;;;;5032130;28;21002;-67
2023/08/26 05:40:00;;;;;;;13.80;6.63;;;19.10;99.90;;;;;;5031217;28;20551;-66
2023/08/26 05:42:28;;;;;;;11.97;6.53;;;19.10;99.90;;;;;;5030883;28;20528;-66
2023/08/26 05:44:56;;;;;;;11.00;6.50;;;19.00;99.90;;;;;;5050313;28;20965;-66
2023/08/26 05:47:23;;;;;;;31.53;8.10;;;19.00;99.90;;;;;;5050786;28;20510;-67
2023/08/26 05:49:52;;;;;;;14.70;7.80;;;18.90;99.90;;;;;;5049962;28;20475;-66
2023/08/26 05:52:19;;;;;;;21.20;8.80;;;18.90;99.90;;;;;;5030622;28;20441;-67
2023/08/26 05:54:49;;;;;;;14.93;8.67;;;18.90;99.90;;;;;;5030853;28;20445;-67
2023/08/26 05:57:17;;;;;;;13.03;7.60;;;18.90;99.90;;;;;;5030385;28;20579;-66
2023/08/26 05:59:45;;;;;;;12.70;7.00;;;19.00;99.90;;;;;;5031205;28;20436;-66
2023/08/26 06:02:13;;;;;;;11.83;7.20;;;19.20;99.90;;;;;;5030825;28;20953;-66
2023/08/26 06:04:41;;;;;;;15.47;6.60;;;19.40;99.90;;;;;;5037589;28;20452;-66
2023/08/26 06:07:09;;;;;;;15.40;5.70;;;19.60;99.90;;;;;;5051883;28;20881;-66
2023/08/26 06:09:36;;;;;;;12.53;6.20;;;19.80;99.90;;;;;;5051111;28;20953;-66
2023/08/26 06:12:07;;;;;;;13.07;6.50;;;19.80;99.90;;;;;;5050286;28;20948;-66
2023/08/26 06:14:35;;;;;;;14.30;5.97;;;19.80;99.90;;;;;;5049912;28;20447;-65
2023/08/26 06:17:02;;;;;;;12.43;5.20;;;19.80;99.90;;;;;;5050238;28;21065;-66
2023/08/26 06:19:30;;;;;;;13.83;6.17;;;19.70;99.90;;;;;;5050323;28;20913;-66
2023/08/26 06:21:58;;;;;;;11.50;5.33;;;19.80;99.90;;;;;;5035517;28;20445;-66
2023/08/26 06:24:27;;;;;;;16.40;6.37;;;19.70;99.90;;;;;;5030088;28;20441;-65
2023/08/26 06:26:55;;;;;;;14.07;5.90;;;19.60;99.90;;;;;;5030269;28;20471;-66
2023/08/26 06:29:25;;;;;;;12.93;5.60;;;19.70;99.90;;;;;;5030468;28;20993;-66
2023/08/26 06:31:53;;;;;;;12.03;6.40;;;19.80;99.90;;;;;;5030233;28;20483;-65
2023/08/26 06:34:21;;;;;;;13.20;6.70;;;19.70;99.90;;;;;;5029591;28;20453;-64
2023/08/26 06:36:49;;;;;;;13.10;5.87;;;19.80;99.90;;;;;;5030946;28;20461;-65
2023/08/26 06:39:17;;;;;;;12.63;5.70;;;20.00;99.90;;;;;;5030492;28;20437;-66
2023/08/26 06:41:45;;;;;;;11.13;5.83;;;20.00;99.90;;;;;;5030361;28;20465;-66
2023/08/26 06:44:13;;;;;;;16.33;6.20;;;20.00;99.90;;;;;;5029771;28;20445;-66
2023/08/26 06:46:42;;;;;;;10.93;5.60;;;20.10;99.90;;;;;;5030389;28;20564;-66
2023/08/26 06:49:10;;;;;;;12.43;5.23;;;20.40;99.90;;;;;;5029877;28;20467;-65
2023/08/26 06:51:38;;;;;;;10.37;4.80;;;20.80;99.90;;;;;;5029916;28;21069;-67
2023/08/26 06:54:07;;;;;;;10.70;5.80;;;21.10;99.90;;;;;;5030624;28;20477;-65
2023/08/26 06:56:35;;;;;;;11.20;5.20;;;21.20;99.90;;;;;;5029704;28;20475;-67
2023/08/26 06:59:04;;;;;;;11.93;6.07;;;21.10;99.90;;;;;;5030050;28;20433;-66
2023/08/26 07:01:34;;;;;;;12.20;5.00;;;21.20;99.90;;;;;;5029656;28;20495;-66
2023/08/26 07:04:07;;;;;;;11.27;5.30;;;21.20;99.90;;;;;;5029554;28;20498;-67
2023/08/26 07:06:36;;;;;;;14.33;5.77;;;21.10;99.90;;;;;;5029806;28;20465;-67
2023/08/26 07:09:05;;;;;;;16.07;5.80;;;21.20;99.90;;;;;;5030394;28;20518;-65
2023/08/26 07:11:33;;;;;;;12.50;6.00;;;21.10;99.90;;;;;;5049305;28;20483;-65
2023/08/26 07:14:01;;;;;;;13.80;7.77;;;21.10;99.90;;;;;;5049431;28;20489;-66
2023/08/26 07:16:29;;;;;;;11.40;5.20;;;21.10;99.90;;;;;;5049172;28;20468;-66
2023/08/26 07:18:57;;;;;;;12.20;5.30;;;21.40;99.90;;;;;;5049589;28;20451;-64
2023/08/26 07:21:26;;;;;;;11.30;5.23;;;21.50;99.90;;;;;;5050082;28;20922;-66
2023/08/26 07:23:54;;;;;;;11.10;5.40;;;21.40;99.90;;;;;;5049436;28;20502;-66
2023/08/26 07:26:22;;;;;;;10.53;4.80;;;21.40;99.90;;;;;;5042805;28;20481;-67
2023/08/26 07:28:50;;;;;;;10.07;4.57;;;21.60;99.90;;;;;;5029529;28;20455;-67
2023/08/26 07:31:18;;;;;;;12.97;4.80;;;21.60;99.90;;;;;;5030044;28;20481;-66
2023/08/26 07:33:45;;;;;;;10.63;5.30;;;21.70;99.90;;;;;;5029448;28;20448;-67
2023/08/26 07:36:13;;;;;;;13.37;5.70;;;21.90;99.90;;;;;;5029695;28;20460;-63
2023/08/26 07:38:43;;;;;;;13.80;6.13;;;21.90;99.90;;;;;;5029487;28;20969;-66
2023/08/26 07:41:10;;;;;;;12.03;5.73;;;21.90;99.90;;;;;;5029757;28;20445;-65
2023/08/26 07:43:38;;;;;;;10.63;4.67;;;22.20;99.90;;;;;;5041951;28;20551;-65
2023/08/26 07:46:06;;;;;;;9.63;4.33;;;22.50;99.90;;;;;;5050979;28;20563;-65
2023/08/26 07:48:37;;;;;;;11.80;4.70;;;22.90;99.90;;;;;;5053456;28;20591;-67
2023/08/26 07:51:05;;;;;;;10.80;4.40;;;22.90;99.90;;;;;;5040946;28;20480;-65
2023/08/26 07:53:33;;;;;;;11.77;4.93;;;22.70;99.90;;;;;;5033078;28;20445;-67
2023/08/26 07:56:03;;;;;;;10.73;4.60;;;22.50;99.90;;;;;;5033051;28;20555;-66
2023/08/26 07:58:31;;;;;;;9.40;4.63;;;22.30;99.90;;;;;;5033272;28;20444;-66
2023/08/26 08:00:58;;;;;;;10.65;4.32;;;22.10;99.90;;;;;;5033155;28;20452;-65
2023/08/26 08:03:27;;;;;;;9.90;4.40;;;22.10;99.90;;;;;;5032697;28;20574;-65
2023/08/26 08:05:55;;;;;;;8.90;4.00;;;22.30;99.90;;;;;;5051296;28;20627;-65
2023/08/26 08:08:24;;;;;;;9.87;4.50;;;22.30;99.90;;;;;;5051889;28;20439;-65
2023/08/26 08:10:52;;;;;;;10.47;5.13;;;22.40;99.90;;;;;;5053054;28;20480;-66
2023/08/26 08:13:21;;;;;;;10.00;3.83;;;22.50;99.90;;;;;;5052675;28;20547;-66
2023/08/26 08:15:49;;;;;;;10.50;4.50;;;22.80;99.90;;;;;;5052673;28;20448;-66
2023/08/26 08:18:17;;;;;;;12.00;4.43;;;22.90;99.90;;;;;;5053005;28;20497;-66
2023/08/26 08:20:45;;;;;;;9.90;4.27;;;22.80;99.90;;;;;;5052279;28;20531;-66
2023/08/26 08:23:13;;;;;;;10.83;4.57;;;22.80;99.90;;;;;;5052432;28;20537;-67
2023/08/26 08:25:41;;;;;;;9.60;4.13;;;23.10;99.90;;;;;;5052458;28;20820;-66
2023/08/26 08:28:09;;;;;;;12.47;4.93;;;23.20;99.90;;;;;;5052721;28;20471;-67
2023/08/26 08:30:39;;;;;;;10.53;4.33;;;23.40;99.90;;;;;;5052237;28;21022;-66
2023/08/26 08:33:07;;;;;;;11.33;4.67;;;23.40;99.90;;;;;;5052538;28;20467;-66
2023/08/26 08:35:35;;;;;;;12.70;4.50;;;23.00;99.90;;;;;;5052434;28;20440;-66
2023/08/26 08:38:03;;;;;;;11.27;4.67;;;22.80;99.90;;;;;;5052885;28;20868;-67
2023/08/26 08:40:31;;;;;;;12.73;7.10;;;22.60;99.90;;;;;;5052390;28;20534;-65
2023/08/26 08:43:03;;;;;;;12.73;5.37;;;22.20;99.90;;;;;;5052044;28;20443;-65
2023/08/26 08:45:31;;;;;;;13.23;5.60;;;21.90;99.90;;;;;;5052544;28;20451;-66
2023/08/26 08:48:01;;;;;;;12.23;5.10;;;21.80;99.90;;;;;;5052025;28;20451;-66
2023/08/26 08:50:30;;;;;;;9.80;5.03;;;21.80;99.90;;;;;;5052794;28;20466;-65
2023/08/26 08:53:00;;;;;;;10.17;4.77;;;22.10;99.90;;;;;;5051817;28;20552;-66
2023/08/26 08:55:28;;;;;;;12.60;5.50;;;22.50;99.90;;;;;;5052411;28;20918;-65
2023/08/26 08:57:57;;;;;;;12.30;5.50;;;22.70;99.90;;;;;;5051323;28;20468;-70
2023/08/26 09:00:26;;;;;;;10.10;3.97;;;23.00;99.90;;;;;;5051980;28;20550;-66
2023/08/26 09:02:56;;;;;;;10.43;4.13;;;23.40;99.90;;;;;;5051214;28;20432;-66
2023/08/26 09:05:27;;;;;;;10.30;5.20;;;23.80;99.90;;;;;;5048388;28;20508;-65
2023/08/26 09:07:56;;;;;;;9.10;4.70;;;23.90;99.90;;;;;;5048246;28;20834;-66
2023/08/26 09:10:26;;;;;;;10.23;4.23;;;23.80;99.90;;;;;;5043575;28;20456;-67
2023/08/26 09:12:54;;;;;;;11.30;4.63;;;23.80;99.90;;;;;;5050790;28;20476;-67
2023/08/26 09:15:22;;;;;;;12.20;5.43;;;23.80;99.90;;;;;;5048091;28;20444;-66
2023/08/26 09:17:51;;;;;;;9.10;4.23;;;24.00;99.90;;;;;;5051558;28;20538;-66
2023/08/26 09:20:19;;;;;;;10.53;4.37;;;24.00;99.90;;;;;;5043097;28;21024;-66
2023/08/26 09:22:48;;;;;;;11.93;4.57;;;23.90;99.90;;;;;;5048387;28;20460;-66
2023/08/26 09:25:16;;;;;;;11.57;5.10;;;23.80;99.90;;;;;;5051726;28;20436;-66
2023/08/26 09:27:44;;;;;;;12.63;5.20;;;23.50;99.90;;;;;;5048954;28;20467;-66
2023/08/26 09:30:20;;;;;;;13.80;4.63;;;22.90;99.90;;;;;;5045739;28;20437;-67
2023/08/26 09:32:49;;;;;;;12.07;4.37;;;22.60;99.90;;;;;;5043078;28;20475;-67
2023/08/26 09:35:19;;;;;;;11.03;5.27;;;22.40;99.90;;;;;;5051409;28;20470;-66
2023/08/26 09:38:09;;;;;;;11.03;4.77;;;22.30;99.90;;;;;;5051074;28;20451;-67
2023/08/26 09:40:39;;;;;;;12.00;6.30;;;22.20;99.90;;;;;;5051131;28;20980;-67
2023/08/26 09:43:07;;;;;;;10.90;5.17;;;22.20;99.90;;;;;;5051139;28;20486;-67
2023/08/26 09:45:38;;;;;;;11.57;5.20;;;22.10;99.90;;;;;;5051241;28;20444;-67
2023/08/26 09:48:07;;;;;;;10.83;4.53;;;21.90;99.90;;;;;;5049251;28;20462;-67
2023/08/26 09:50:35;;;;;;;9.60;4.23;;;22.00;99.90;;;;;;5038411;28;20451;-66
2023/08/26 09:53:03;;;;;;;10.67;4.43;;;22.20;99.90;;;;;;5051305;28;20479;-66
2023/08/26 09:55:33;;;;;;;11.37;4.67;;;22.20;99.90;;;;;;5050929;28;20491;-66
2023/08/26 09:58:01;;;;;;;10.70;5.30;;;22.20;99.90;;;;;;5051351;28;20521;-66
2023/08/26 10:00:29;;;;;;;10.87;4.40;;;22.00;99.90;;;;;;5050865;28;20444;-66
2023/08/26 10:03:01;;;;;;;10.20;4.87;;;21.90;99.90;;;;;;5050542;28;20480;-67
2023/08/26 10:05:33;;;;;;;12.23;5.00;;;21.90;99.90;;;;;;5045452;28;20460;-67
2023/08/26 10:08:05;;;;;;;11.87;4.80;;;22.00;99.90;;;;;;5049229;28;20862;-66
2023/08/26 10:10:47;;;;;;;9.10;4.37;;;22.00;99.90;;;;;;5057448;28;20953;-66
2023/08/26 10:13:20;;;;;;;10.00;4.27;;;22.10;99.90;;;;;;5050442;28;20483;-67
2023/08/26 10:15:52;;;;;;;9.57;4.60;;;22.10;99.90;;;;;;5048889;28;20479;-67
2023/08/26 10:18:29;;;;;;;11.40;4.40;;;22.20;99.90;;;;;;5049933;28;20440;-66
2023/08/26 10:20:59;;;;;;;12.30;4.77;;;22.20;99.90;;;;;;5040356;28;20970;-67
2023/08/26 10:23:28;;;;;;;12.23;3.77;;;22.20;99.90;;;;;;5037918;28;20497;-66
2023/08/26 10:25:58;;;;;;;9.87;3.80;;;22.30;99.90;;;;;;5040924;28;20463;-66
2023/08/26 10:28:26;;;;;;;11.10;3.70;;;22.30;99.90;;;;;;5037332;28;20525;-66
2023/08/26 10:30:57;;;;;;;10.53;3.97;;;22.40;99.90;;;;;;5038721;28;20441;-67
2023/08/26 10:33:28;;;;;;;10.57;3.80;;;22.70;99.90;;;;;;5038021;28;20479;-64
2023/08/26 10:36:00;;;;;;;12.23;3.40;;;23.00;99.90;;;;;;5044715;28;20460;-66
2023/08/26 10:38:28;;;;;;;10.67;4.20;;;23.30;99.90;;;;;;5046978;28;20436;-66
2023/08/26 10:41:11;;;;;;;13.60;4.20;;;23.60;99.90;;;;;;5041179;28;20935;-66
2023/08/26 10:43:50;;;;;;;9.30;4.63;;;23.60;99.90;;;;;;5036088;28;20449;-65
2023/08/26 10:46:18;;;;;;;10.30;3.97;;;23.50;99.90;;;;;;5034016;28;20982;-66
2023/08/26 10:48:56;;;;;;;9.37;3.90;;;23.00;99.90;;;;;;5043224;28;20448;-66
2023/08/26 10:51:24;;;;;;;10.30;4.10;;;22.90;99.90;;;;;;5049639;28;20871;-66
2023/08/26 10:53:52;;;;;;;9.50;4.13;;;22.80;99.90;;;;;;5049473;28;20479;-67
2023/08/26 10:56:27;;;;;;;9.20;3.90;;;22.80;99.90;;;;;;5049353;28;20467;-67
2023/08/26 10:59:01;;;;;;;11.13;4.10;;;22.60;99.90;;;;;;5048870;28;20548;-66
2023/08/26 11:01:30;;;;;;;14.70;4.33;;;22.50;99.90;;;;;;5048571;28;20439;-66
2023/08/26 11:03:59;;;;;;;9.53;4.13;;;22.30;99.90;;;;;;5046970;28;20428;-66
2023/08/26 11:06:28;;;;;;;12.10;4.20;;;22.20;99.90;;;;;;5045466;28;20550;-65
2023/08/26 11:08:58;;;;;;;10.67;4.30;;;22.20;99.90;;;;;;5047935;28;20534;-66
2023/08/26 11:11:27;;;;;;;10.20;3.87;;;22.40;99.90;;;;;;5048810;28;21017;-65
2023/08/26 11:13:55;;;;;;;10.57;3.80;;;22.60;99.90;;;;;;5045008;28;20473;-65
2023/08/26 11:16:23;;;;;;;12.70;4.50;;;22.90;99.90;;;;;;5048296;28;20518;-65
2023/08/26 11:18:53;;;;;;;13.00;3.50;;;23.40;99.90;;;;;;5048448;28;20468;-65
2023/08/26 11:21:21;;;;;;;10.40;3.60;;;23.70;99.90;;;;;;5040802;28;20566;-64
2023/08/26 11:23:51;;;;;;;10.43;3.53;;;23.60;99.90;;;;;;5043104;28;20445;-65
2023/08/26 11:26:21;;;;;;;10.90;3.90;;;23.50;99.90;;;;;;5034491;28;20865;-65
2023/08/26 11:28:50;;;;;;;9.60;3.90;;;23.30;99.90;;;;;;5038656;28;20471;-65
2023/08/26 11:31:18;;;;;;;11.90;3.70;;;23.20;99.90;;;;;;5040351;28;20517;-65
2023/08/26 11:33:48;;;;;;;11.60;4.30;;;23.00;99.90;;;;;;5037249;28;20896;-65
2023/08/26 11:36:20;;;;;;;8.60;3.40;;;22.80;99.90;;;;;;5037412;28;20463;-65
2023/08/26 11:38:48;;;;;;;12.00;3.80;;;22.50;99.90;;;;;;5040451;28;20479;-63
2023/08/26 11:41:16;;;;;;;9.70;3.67;;;22.40;99.90;;;;;;5041014;28;20450;-64
2023/08/26 11:43:44;;;;;;;10.27;4.00;;;22.30;99.90;;;;;;5040893;28;20461;-63
2023/08/26 11:46:14;;;;;;;11.00;4.03;;;22.20;99.90;;;;;;5040554;28;20934;-64
2023/08/26 11:48:42;;;;;;;10.10;4.40;;;21.90;99.90;;;;;;5043450;28;20517;-64
2023/08/26 11:51:10;;;;;;;10.77;4.33;;;21.80;99.90;;;;;;5039936;28;21727;-64
2023/08/26 11:53:38;;;;;;;8.80;3.93;;;21.40;99.90;;;;;;5040785;28;20525;-64
2023/08/26 11:56:07;;;;;;;9.87;3.93;;;21.00;99.90;;;;;;5036562;28;21879;-65
2023/08/26 11:58:37;;;;;;;11.37;5.20;;;20.90;99.90;;;;;;5036809;28;20986;-65
2023/08/26 12:01:06;;;;;;;10.73;5.07;;;20.90;99.90;;;;;;5045561;28;20452;-65
2023/08/26 12:03:41;;;;;;;9.77;4.67;;;20.80;99.90;;;;;;5037806;28;20475;-65
2023/08/26 12:06:14;;;;;;;10.60;5.43;;;20.80;99.90;;;;;;5042550;28;20483;-65
2023/08/26 12:08:42;;;;;;;12.23;5.37;;;20.60;99.90;;;;;;5041056;28;20491;-65
2023/08/26 12:11:11;;;;;;;14.03;5.77;;;20.40;99.90;;;;;;5038772;28;21190;-65
2023/08/26 12:13:39;;;;;;;12.70;5.77;;;20.30;99.90;;;;;;5042853;28;20534;-65
2023/08/26 12:16:07;;;;;;;9.87;5.00;;;20.50;99.90;;;;;;5038577;28;20477;-65
2023/08/26 12:18:40;;;;;;;10.50;5.30;;;20.40;99.90;;;;;;5041547;28;20448;-65
2023/08/26 12:21:08;;;;;;;13.27;6.13;;;20.30;99.90;;;;;;5037977;28;20448;-65
2023/08/26 12:23:37;;;;;;;12.63;6.57;;;20.00;99.90;;;;;;5038881;28;20444;-65
2023/08/26 12:26:12;;;;;;;10.93;5.57;;;19.80;99.90;;;;;;5040921;28;20862;-66
2023/08/26 12:28:41;;;;;;;12.27;6.43;;;19.70;99.90;;;;;;5044010;28;20475;-66
2023/08/26 12:31:09;;;;;;;11.83;6.43;;;19.50;99.90;;;;;;5038847;28;20531;-65
2023/08/26 12:33:38;;;;;;;13.87;7.10;;;19.50;99.90;;;;;;5041598;28;20498;-65
2023/08/26 12:36:26;;;;;;;12.37;6.17;;;19.50;99.90;;;;;;5044457;28;20513;-65
2023/08/26 12:38:54;;;;;;;11.63;6.10;;;19.40;99.90;;;;;;5045048;28;20938;-66
2023/08/26 12:41:22;;;;;;;10.70;5.70;;;19.00;99.90;;;;;;5043835;28;20509;-66
2023/08/26 12:43:51;;;;;;;13.77;6.30;;;18.60;99.90;;;;;;5044458;28;21200;-65
2023/08/26 12:46:19;;;;;;;12.53;5.30;;;18.50;99.90;;;;;;5039906;28;20481;-65
2023/08/26 12:48:48;;;;;;;11.80;6.13;;;18.30;99.90;;;;;;5035814;28;21074;-66